Time;durP1;ratioP1;P1;durP2;ratioP2;P2;SDS_P1;SDS_P2;PMS_P1;PMS_P2;Temp;Humidity;BMP_temperature;BMP_pressure;BME280_temperature;BME280_humidity;BME280_pressure;Samples;Min_cycle;Max_cycle;Signal;HPM_P1;HPM_P2
2023/07/07 00:01:07;;;;;;;6.85;2.15;;;16.80;98.00;;;;;;5033348;28;20061;-66
2023/07/07 00:03:34;;;;;;;6.78;2.20;;;16.70;98.20;;;;;;5033327;28;20527;-67
2023/07/07 00:06:00;;;;;;;4.55;2.40;;;16.70;98.20;;;;;;5033250;28;20104;-65
2023/07/07 00:08:26;;;;;;;4.20;2.40;;;16.70;98.30;;;;;;5033149;28;20055;-66
2023/07/07 00:10:53;;;;;;;3.15;2.13;;;16.70;98.30;;;;;;5033550;28;20036;-66
2023/07/07 00:13:20;;;;;;;3.40;2.15;;;16.70;98.40;;;;;;5033319;28;20220;-67
2023/07/07 00:15:46;;;;;;;5.85;2.05;;;16.70;98.50;;;;;;5033216;28;20044;-66
2023/07/07 00:18:26;;;;;;;4.88;2.20;;;16.60;98.50;;;;;;5032974;28;20049;-66
2023/07/07 00:20:55;;;;;;;5.10;2.45;;;16.50;98.60;;;;;;5033211;28;20090;-66
2023/07/07 00:23:21;;;;;;;6.65;2.50;;;16.50;98.60;;;;;;5032999;28;20083;-66
2023/07/07 00:26:16;;;;;;;10.48;2.60;;;16.50;98.50;;;;;;5033330;28;20026;-66
2023/07/07 00:28:42;;;;;;;6.07;2.30;;;16.40;98.70;;;;;;5012994;28;20073;-66
2023/07/07 00:31:08;;;;;;;4.00;2.08;;;16.40;98.70;;;;;;5028768;28;20049;-67
2023/07/07 00:33:33;;;;;;;5.55;2.35;;;16.40;98.90;;;;;;5028171;28;20064;-66
2023/07/07 00:35:59;;;;;;;10.02;3.60;;;16.40;98.80;;;;;;5019559;28;20033;-65
2023/07/07 00:38:25;;;;;;;5.72;2.60;;;16.20;99.00;;;;;;5032895;28;20101;-67
2023/07/07 00:40:52;;;;;;;6.07;2.53;;;16.10;99.20;;;;;;5033115;28;20018;-65
2023/07/07 00:43:20;;;;;;;5.10;2.50;;;16.20;99.10;;;;;;5033120;28;20030;-65
2023/07/07 00:45:45;;;;;;;5.60;2.53;;;16.20;99.10;;;;;;5031517;28;20506;-66
2023/07/07 00:48:15;;;;;;;8.40;2.15;;;16.10;99.30;;;;;;5031533;28;20041;-66
2023/07/07 00:50:48;;;;;;;4.72;2.63;;;16.10;99.40;;;;;;5032547;28;20037;-65
2023/07/07 00:53:14;;;;;;;6.32;2.70;;;16.10;99.40;;;;;;5032511;28;20116;-65
2023/07/07 00:55:44;;;;;;;3.47;2.25;;;16.10;99.50;;;;;;5033098;28;20492;-65
2023/07/07 00:58:14;;;;;;;6.90;2.63;;;16.30;99.30;;;;;;5032436;28;20474;-66
2023/07/07 01:00:44;;;;;;;3.67;2.17;;;16.20;99.50;;;;;;5032503;28;20033;-65
2023/07/07 01:03:15;;;;;;;6.82;2.60;;;16.10;99.50;;;;;;5032314;28;20034;-65
2023/07/07 01:05:43;;;;;;;7.10;2.45;;;16.20;99.60;;;;;;5032428;28;20114;-64
2023/07/07 01:08:09;;;;;;;3.97;2.40;;;16.20;99.60;;;;;;5032595;28;20443;-64
2023/07/07 01:10:35;;;;;;;8.57;2.35;;;16.10;99.60;;;;;;5030959;28;20052;-65
2023/07/07 01:13:01;;;;;;;14.73;2.55;;;16.10;99.60;;;;;;5032294;28;20030;-65
2023/07/07 01:15:30;;;;;;;3.83;2.45;;;16.20;99.60;;;;;;5032049;28;20048;-65
2023/07/07 01:18:08;;;;;;;6.13;2.10;;;16.20;99.50;;;;;;5032023;28;20036;-64
2023/07/07 01:21:00;;;;;;;2.80;2.00;;;16.10;99.50;;;;;;5032201;28;20037;-64
2023/07/07 01:23:43;;;;;;;6.63;3.13;;;16.10;99.50;;;;;;5031842;28;20028;-64
2023/07/07 01:26:22;;;;;;;7.50;2.30;;;16.10;99.60;;;;;;5032384;28;20486;-64
2023/07/07 01:29:00;;;;;;;4.63;1.90;;;16.00;99.90;;;;;;5031968;28;20037;-66
2023/07/07 01:31:32;;;;;;;;;;;16.00;99.70;;;;;;5032279;28;20025;-64
2023/07/07 01:34:00;;;;;;;7.55;2.30;;;16.00;99.60;;;;;;5031525;28;20365;-65
2023/07/07 01:36:27;;;;;;;3.08;1.90;;;16.00;99.70;;;;;;5057471;28;20043;-64
2023/07/07 01:38:53;;;;;;;4.47;2.30;;;16.00;99.70;;;;;;5071561;28;20032;-65
2023/07/07 01:42:00;;;;;;;4.20;2.35;;;16.20;99.70;;;;;;5071315;28;20240;-65
2023/07/07 01:44:38;;;;;;;6.13;2.55;;;16.10;99.30;;;;;;5049565;28;20040;-65
2023/07/07 01:47:31;;;;;;;6.63;2.53;;;16.10;99.30;;;;;;5070645;28;20090;-65
2023/07/07 01:50:03;;;;;;;6.65;2.70;;;16.00;99.70;;;;;;5071498;28;20524;-65
2023/07/07 01:52:54;;;;;;;5.22;2.03;;;16.10;99.50;;;;;;5071417;28;20028;-65
2023/07/07 01:55:31;;;;;;;4.32;2.10;;;16.10;99.40;;;;;;5071417;28;20037;-66
2023/07/07 01:58:00;;;;;;;4.33;1.97;;;16.10;99.60;;;;;;5070861;28;20361;-66
2023/07/07 02:00:29;;;;;;;8.30;2.08;;;16.10;99.40;;;;;;5070908;28;20269;-65
2023/07/07 02:02:57;;;;;;;4.28;2.20;;;16.10;99.60;;;;;;5071259;28;20366;-66
2023/07/07 02:05:23;;;;;;;4.57;2.08;;;16.20;99.60;;;;;;5070744;28;20035;-66
2023/07/07 02:07:49;;;;;;;4.20;2.10;;;16.10;99.00;;;;;;5071357;28;20088;-66
2023/07/07 02:10:15;;;;;;;4.25;1.90;;;16.10;99.30;;;;;;5070912;28;20458;-65
2023/07/07 02:12:40;;;;;;;6.40;2.10;;;16.10;99.40;;;;;;5070865;28;20031;-66
2023/07/07 02:15:07;;;;;;;6.13;2.20;;;16.10;99.30;;;;;;5070580;28;20033;-65
2023/07/07 02:17:32;;;;;;;7.13;1.75;;;16.10;99.30;;;;;;5070302;28;20400;-65
2023/07/07 02:19:58;;;;;;;3.92;2.03;;;16.10;98.90;;;;;;5071021;28;20484;-65
2023/07/07 02:22:24;;;;;;;4.32;1.83;;;16.00;99.00;;;;;;5070177;28;20028;-64
2023/07/07 02:24:49;;;;;;;3.83;1.92;;;16.10;98.90;;;;;;5070817;28;20042;-65
2023/07/07 02:27:15;;;;;;;4.63;1.70;;;16.10;98.80;;;;;;5070325;28;20375;-66
2023/07/07 02:29:41;;;;;;;2.45;1.40;;;16.00;98.70;;;;;;5070545;28;20101;-66
2023/07/07 02:32:07;;;;;;;5.53;1.92;;;16.00;98.70;;;;;;5070690;28;20056;-66
2023/07/07 02:34:34;;;;;;;4.68;1.80;;;16.10;98.60;;;;;;5069837;28;20091;-66
2023/07/07 02:37:00;;;;;;;4.85;2.00;;;16.10;98.70;;;;;;5069097;28;20040;-66
2023/07/07 02:39:27;;;;;;;4.82;2.25;;;16.10;98.70;;;;;;5070318;28;20037;-65
2023/07/07 02:41:53;;;;;;;3.50;1.97;;;16.10;98.60;;;;;;5070479;28;20067;-64
2023/07/07 02:44:19;;;;;;;9.50;2.20;;;16.10;98.70;;;;;;5070318;28;20363;-65
2023/07/07 02:46:45;;;;;;;3.17;1.67;;;16.10;98.90;;;;;;5069709;28;20029;-65
2023/07/07 02:49:12;;;;;;;5.85;1.70;;;16.10;98.70;;;;;;5070155;28;20065;-66
2023/07/07 02:51:37;;;;;;;4.88;1.92;;;16.10;98.80;;;;;;5070301;28;20036;-66
2023/07/07 02:54:03;;;;;;;4.47;1.77;;;16.10;99.00;;;;;;5069000;28;20033;-65
2023/07/07 02:56:29;;;;;;;6.75;1.83;;;16.10;98.80;;;;;;5070021;28;20024;-66
2023/07/07 02:58:55;;;;;;;2.95;1.70;;;16.00;98.60;;;;;;5070827;28;20054;-64
2023/07/07 03:01:23;;;;;;;3.42;1.83;;;16.00;98.70;;;;;;5068897;28;20033;-65
2023/07/07 03:03:51;;;;;;;3.35;1.88;;;16.00;98.60;;;;;;5070078;28;20032;-65
2023/07/07 03:06:21;;;;;;;4.28;1.65;;;16.10;98.50;;;;;;5069957;28;20040;-65
2023/07/07 03:08:47;;;;;;;4.82;1.92;;;16.10;98.80;;;;;;5070057;28;20153;-66
2023/07/07 03:11:16;;;;;;;3.00;1.67;;;16.20;98.90;;;;;;5070305;28;20039;-65
2023/07/07 03:13:41;;;;;;;3.20;1.98;;;16.10;99.20;;;;;;5070487;28;20028;-65
2023/07/07 03:16:11;;;;;;;7.53;4.45;;;16.10;99.10;;;;;;5068718;28;20032;-65
2023/07/07 03:18:39;;;;;;;4.47;2.20;;;16.00;99.70;;;;;;5069870;28;20032;-66
2023/07/07 03:21:05;;;;;;;3.03;1.98;;;16.00;99.70;;;;;;5069769;28;20535;-65
2023/07/07 03:23:30;;;;;;;4.65;1.98;;;16.00;99.60;;;;;;5069548;28;20336;-64
2023/07/07 03:26:04;;;;;;;4.47;2.22;;;16.10;99.50;;;;;;5069114;28;20359;-64
2023/07/07 03:28:30;;;;;;;6.07;2.20;;;16.20;99.30;;;;;;5068970;28;20029;-65
2023/07/07 03:30:56;;;;;;;5.15;2.00;;;16.10;99.10;;;;;;5070062;28;20094;-65
2023/07/07 03:33:21;;;;;;;6.50;2.30;;;16.10;99.70;;;;;;5070514;28;20425;-65
2023/07/07 03:35:50;;;;;;;6.47;2.05;;;16.10;99.90;;;;;;5073730;28;20450;-65
2023/07/07 03:38:16;;;;;;;5.55;2.22;;;16.10;99.90;;;;;;5074334;28;20017;-64
2023/07/07 03:40:48;;;;;;;9.13;2.55;;;16.10;99.50;;;;;;5074507;28;20580;-65
2023/07/07 03:43:14;;;;;;;8.00;2.20;;;16.00;99.90;;;;;;5073942;28;20028;-65
2023/07/07 03:45:40;;;;;;;6.03;2.03;;;16.00;99.90;;;;;;5073574;28;20042;-65
2023/07/07 03:48:06;;;;;;;5.25;2.30;;;16.10;99.80;;;;;;5073828;28;20033;-64
2023/07/07 03:50:31;;;;;;;4.85;2.33;;;16.20;99.80;;;;;;5073354;28;20116;-64
2023/07/07 03:52:57;;;;;;;7.20;2.40;;;16.10;99.50;;;;;;5073866;28;20446;-66
2023/07/07 03:55:23;;;;;;;4.45;1.98;;;16.10;99.80;;;;;;5073437;28;20028;-66
2023/07/07 03:57:48;;;;;;;6.72;2.60;;;16.10;99.70;;;;;;5073600;28;20037;-65
2023/07/07 04:00:14;;;;;;;4.05;1.98;;;16.10;99.90;;;;;;5073246;28;20036;-66
2023/07/07 04:02:39;;;;;;;6.90;2.17;;;16.10;99.90;;;;;;5073536;28;20044;-64
2023/07/07 04:05:05;;;;;;;7.28;2.00;;;16.00;99.90;;;;;;5072543;28;20108;-66
2023/07/07 04:07:31;;;;;;;5.38;2.15;;;16.00;99.90;;;;;;5072174;28;20555;-65
2023/07/07 04:09:57;;;;;;;2.92;2.05;;;16.10;99.90;;;;;;5073207;28;20075;-65
2023/07/07 04:12:22;;;;;;;7.38;2.67;;;16.10;99.90;;;;;;5073220;28;20028;-67
2023/07/07 04:14:48;;;;;;;3.67;1.90;;;16.10;99.90;;;;;;5073031;28;20033;-65
2023/07/07 04:17:13;;;;;;;5.90;2.28;;;16.20;99.90;;;;;;5073183;28;20021;-66
2023/07/07 04:19:39;;;;;;;6.28;2.15;;;16.20;99.90;;;;;;5073393;28;20410;-66
2023/07/07 04:22:05;;;;;;;5.80;2.25;;;16.30;99.90;;;;;;5071921;28;20525;-66
2023/07/07 04:24:30;;;;;;;4.00;2.38;;;16.30;99.90;;;;;;5072719;28;20024;-66
2023/07/07 04:26:56;;;;;;;3.05;2.10;;;16.30;99.90;;;;;;5072612;28;20036;-65
2023/07/07 04:29:22;;;;;;;3.85;2.20;;;16.30;99.90;;;;;;5072785;28;20488;-65
2023/07/07 04:31:47;;;;;;;4.80;2.28;;;16.30;99.90;;;;;;5073095;28;20197;-66
2023/07/07 04:34:15;;;;;;;3.35;2.20;;;16.40;99.80;;;;;;5072470;28;20079;-66
2023/07/07 04:36:41;;;;;;;8.70;2.17;;;16.40;99.70;;;;;;5073164;28;20542;-66
2023/07/07 04:39:07;;;;;;;5.10;2.65;;;16.40;99.40;;;;;;5072666;28;20116;-65
2023/07/07 04:41:33;;;;;;;5.50;2.22;;;16.40;99.10;;;;;;5071321;28;20467;-66
2023/07/07 04:44:00;;;;;;;4.13;2.00;;;16.40;99.10;;;;;;5071655;28;20044;-65
2023/07/07 04:46:35;;;;;;;2.75;1.85;;;16.40;99.50;;;;;;5071259;28;20132;-65
2023/07/07 04:49:11;;;;;;;4.10;1.90;;;16.50;99.80;;;;;;5072343;28;20116;-65
2023/07/07 04:51:39;;;;;;;5.88;1.88;;;16.50;99.60;;;;;;5072278;28;20338;-65
2023/07/07 04:54:06;;;;;;;4.13;1.73;;;16.50;99.30;;;;;;5072284;28;20460;-65
2023/07/07 04:56:35;;;;;;;3.40;2.25;;;16.50;99.00;;;;;;5071964;28;20032;-65
2023/07/07 04:59:02;;;;;;;2.78;1.83;;;16.50;98.80;;;;;;5072521;28;20025;-66
2023/07/07 05:01:30;;;;;;;7.82;2.30;;;16.60;98.80;;;;;;5072151;28;20048;-65
2023/07/07 05:04:01;;;;;;;9.93;2.17;;;16.60;98.70;;;;;;5072174;28;20036;-65
2023/07/07 05:06:28;;;;;;;7.28;2.05;;;16.60;98.70;;;;;;5071971;28;20075;-64
2023/07/07 05:08:55;;;;;;;4.35;1.92;;;16.70;98.70;;;;;;5072046;28;20043;-64
2023/07/07 05:11:23;;;;;;;5.47;2.20;;;16.70;98.60;;;;;;5071741;28;20074;-64
2023/07/07 05:13:50;;;;;;;3.97;1.60;;;16.80;98.40;;;;;;5071043;28;20108;-65
2023/07/07 05:16:25;;;;;;;2.28;1.70;;;16.80;98.30;;;;;;5070593;28;20501;-66
2023/07/07 05:18:51;;;;;;;3.38;2.03;;;16.90;98.30;;;;;;5071746;28;20037;-65
2023/07/07 05:21:19;;;;;;;7.50;1.85;;;17.00;98.10;;;;;;5071842;28;20029;-65
2023/07/07 05:23:45;;;;;;;7.28;1.88;;;17.00;98.00;;;;;;5071486;28;20381;-67
2023/07/07 05:26:11;;;;;;;5.25;1.70;;;17.10;97.60;;;;;;5071783;28;20028;-66
2023/07/07 05:28:37;;;;;;;4.57;1.80;;;17.20;97.50;;;;;;5071490;28;20378;-66
2023/07/07 05:31:06;;;;;;;5.40;1.98;;;17.20;97.40;;;;;;5071389;28;20054;-66
2023/07/07 05:33:33;;;;;;;12.77;4.47;;;17.20;97.20;;;;;;5071441;28;20049;-66
2023/07/07 05:36:00;;;;;;;3.33;1.98;;;17.40;97.10;;;;;;5071479;28;20036;-66
2023/07/07 05:38:28;;;;;;;9.32;2.50;;;17.40;97.10;;;;;;5071095;28;20405;-66
2023/07/07 05:40:54;;;;;;;4.63;2.50;;;17.50;96.90;;;;;;5071654;28;20031;-66
2023/07/07 05:43:21;;;;;;;6.30;2.28;;;17.50;96.80;;;;;;5071362;28;20034;-65
2023/07/07 05:45:53;;;;;;;9.68;2.40;;;17.60;96.60;;;;;;5071230;28;20033;-66
2023/07/07 05:48:18;;;;;;;4.25;2.20;;;17.70;96.60;;;;;;5070961;28;20370;-66
2023/07/07 05:50:45;;;;;;;3.80;1.88;;;17.70;96.40;;;;;;5070917;28;20032;-65
2023/07/07 05:53:11;;;;;;;10.35;4.20;;;17.80;96.30;;;;;;5071257;28;20407;-65
2023/07/07 05:55:37;;;;;;;8.18;2.50;;;17.90;96.20;;;;;;5070365;28;20123;-66
2023/07/07 05:58:05;;;;;;;3.13;2.30;;;18.00;96.20;;;;;;5070863;28;20358;-68
2023/07/07 06:00:32;;;;;;;3.53;1.63;;;18.10;96.20;;;;;;5071029;28;20043;-67
2023/07/07 06:02:58;;;;;;;2.70;1.55;;;18.20;95.90;;;;;;5070733;28;20374;-66
2023/07/07 06:05:25;;;;;;;6.57;1.55;;;18.30;95.50;;;;;;5070589;28;20341;-68
2023/07/07 06:07:51;;;;;;;3.10;1.65;;;18.40;95.70;;;;;;5071130;28;20365;-68
2023/07/07 06:10:17;;;;;;;8.32;2.35;;;18.50;95.40;;;;;;5070896;28;20347;-66
2023/07/07 06:12:43;;;;;;;2.47;1.90;;;18.50;95.40;;;;;;5071013;28;20029;-67
2023/07/07 06:15:09;;;;;;;4.68;2.30;;;18.80;95.60;;;;;;5050827;28;20068;-67
2023/07/07 06:17:35;;;;;;;6.15;2.08;;;18.90;95.30;;;;;;5050926;28;20175;-66
2023/07/07 06:20:01;;;;;;;8.63;1.48;;;18.90;95.00;;;;;;5051352;28;20044;-68
2023/07/07 06:22:27;;;;;;;3.47;1.60;;;18.90;94.90;;;;;;5050476;28;20366;-71
2023/07/07 06:24:53;;;;;;;3.35;1.77;;;19.00;94.90;;;;;;5049914;28;20029;-70
2023/07/07 06:27:19;;;;;;;3.97;1.83;;;19.10;94.60;;;;;;5050330;28;20073;-68
2023/07/07 06:29:45;;;;;;;5.00;1.77;;;19.20;94.80;;;;;;5050254;28;20033;-70
2023/07/07 06:32:11;;;;;;;4.15;1.48;;;19.20;94.70;;;;;;5050842;28;20059;-69
2023/07/07 06:34:37;;;;;;;3.80;1.13;;;19.30;94.30;;;;;;5050192;28;20084;-72
2023/07/07 06:37:03;;;;;;;3.83;1.63;;;19.40;93.80;;;;;;5050228;28;20040;-69
2023/07/07 06:39:29;;;;;;;3.33;1.70;;;19.50;93.80;;;;;;5050210;28;20033;-69
2023/07/07 06:41:55;;;;;;;6.72;1.92;;;19.60;93.80;;;;;;5050177;28;20128;-69
2023/07/07 06:44:21;;;;;;;6.05;1.80;;;19.60;93.90;;;;;;5048737;28;20040;-69
2023/07/07 06:46:47;;;;;;;9.52;5.72;;;19.70;93.90;;;;;;5050600;28;20021;-69
2023/07/07 06:49:13;;;;;;;17.42;11.35;;;19.70;93.90;;;;;;5072634;28;20104;-69
2023/07/07 06:51:38;;;;;;;8.63;2.92;;;19.80;93.60;;;;;;5050102;28;20116;-69
2023/07/07 06:54:05;;;;;;;4.15;1.83;;;19.90;93.20;;;;;;5049803;28;20195;-69
2023/07/07 06:56:31;;;;;;;4.97;1.80;;;19.90;93.30;;;;;;5050098;28;20053;-70
2023/07/07 06:58:56;;;;;;;5.80;1.83;;;19.90;93.50;;;;;;5050484;28;20407;-69
2023/07/07 07:01:22;;;;;;;7.35;2.22;;;20.00;93.40;;;;;;5050165;28;20037;-69
2023/07/07 07:03:48;;;;;;;3.38;1.60;;;20.20;93.60;;;;;;5049008;28;20037;-69
2023/07/07 07:06:14;;;;;;;5.20;1.40;;;20.40;93.10;;;;;;5050055;28;20394;-68
2023/07/07 07:08:39;;;;;;;2.08;1.73;;;20.40;92.70;;;;;;5050293;28;20033;-69
2023/07/07 07:11:06;;;;;;;3.50;1.58;;;20.50;92.70;;;;;;5050527;28;20028;-69
2023/07/07 07:13:32;;;;;;;4.03;1.60;;;20.60;92.50;;;;;;5047541;28;20043;-67
2023/07/07 07:15:58;;;;;;;1.92;1.30;;;20.70;92.70;;;;;;5050818;28;20465;-67
2023/07/07 07:18:24;;;;;;;2.95;1.30;;;20.80;92.40;;;;;;5051510;28;20140;-69
2023/07/07 07:20:54;;;;;;;3.50;1.48;;;21.00;92.10;;;;;;5051161;28;20040;-70
2023/07/07 07:23:20;;;;;;;3.42;1.55;;;21.10;91.90;;;;;;5050025;28;20029;-69
2023/07/07 07:25:46;;;;;;;3.90;1.40;;;21.20;91.70;;;;;;5050430;28;20344;-68
2023/07/07 07:28:13;;;;;;;5.20;1.48;;;21.20;91.40;;;;;;5050902;28;20358;-68
2023/07/07 07:30:39;;;;;;;3.15;1.70;;;21.30;91.20;;;;;;5051093;28;20025;-69
2023/07/07 07:33:06;;;;;;;6.63;2.78;;;21.30;91.10;;;;;;5050797;28;20155;-68
2023/07/07 07:35:32;;;;;;;2.90;1.67;;;21.40;91.10;;;;;;5051071;28;20040;-67
2023/07/07 07:37:58;;;;;;;6.45;1.50;;;21.40;90.70;;;;;;5051482;28;20025;-69
2023/07/07 07:40:25;;;;;;;3.83;1.40;;;21.50;90.20;;;;;;5051013;28;20025;-69
2023/07/07 07:42:50;;;;;;;3.30;1.30;;;21.60;90.40;;;;;;5051296;28;20053;-69
2023/07/07 07:45:19;;;;;;;4.05;1.80;;;21.60;90.30;;;;;;5050655;28;20488;-70
2023/07/07 07:47:45;;;;;;;4.30;1.40;;;21.70;90.10;;;;;;5083433;28;20362;-67
2023/07/07 07:50:11;;;;;;;2.83;1.60;;;21.90;90.10;;;;;;5051371;28;20045;-67
2023/07/07 07:52:37;;;;;;;1.90;1.23;;;22.20;90.20;;;;;;5050202;28;20528;-67
2023/07/07 07:55:02;;;;;;;4.82;1.35;;;22.60;89.10;;;;;;5051150;28;20032;-68
2023/07/07 07:57:28;;;;;;;2.90;1.40;;;22.90;88.20;;;;;;5050805;28;20112;-69
2023/07/07 07:59:54;;;;;;;4.10;1.27;;;23.10;87.70;;;;;;5050480;28;20037;-66
2023/07/07 08:02:19;;;;;;;2.78;1.38;;;23.20;86.30;;;;;;5050902;28;20130;-67
2023/07/07 08:04:45;;;;;;;2.60;1.50;;;23.30;88.00;;;;;;5050853;28;20102;-67
2023/07/07 08:07:11;;;;;;;2.67;1.58;;;23.50;86.00;;;;;;5050594;28;20044;-67
2023/07/07 08:09:36;;;;;;;2.67;1.58;;;23.60;86.00;;;;;;5050651;28;20029;-67
2023/07/07 08:12:03;;;;;;;2.22;1.63;;;23.60;86.50;;;;;;5049688;28;20108;-66
2023/07/07 08:14:31;;;;;;;4.07;1.20;;;23.70;85.10;;;;;;5050477;28;20104;-66
2023/07/07 08:17:08;;;;;;;;;;;23.70;85.40;;;;;;5051480;28;20021;-69
2023/07/07 08:19:36;;;;;;;3.25;1.58;;;23.90;85.10;;;;;;5052863;28;19995;-67
2023/07/07 08:22:13;;;;;;;6.95;1.85;;;24.00;83.80;;;;;;5054633;28;20021;-68
2023/07/07 08:24:41;;;;;;;4.00;1.60;;;24.20;84.90;;;;;;5086455;28;20044;-68
2023/07/07 08:27:08;;;;;;;2.53;1.25;;;24.40;84.10;;;;;;5053952;28;20269;-67
2023/07/07 08:29:34;;;;;;;3.40;1.60;;;24.60;82.70;;;;;;5052880;28;20033;-67
2023/07/07 08:32:00;;;;;;;3.30;1.35;;;24.90;84.80;;;;;;5054741;28;20021;-67
2023/07/07 08:34:26;;;;;;;5.78;1.67;;;25.20;81.10;;;;;;5054015;28;20057;-68
2023/07/07 08:36:59;;;;;;;5.25;1.77;;;25.60;80.40;;;;;;5054190;28;20393;-68
2023/07/07 08:39:28;;;;;;;7.25;1.90;;;26.20;80.10;;;;;;5054266;28;20084;-69
2023/07/07 08:41:59;;;;;;;5.18;1.30;;;27.10;77.10;;;;;;5054262;28;20025;-68
2023/07/07 08:44:26;;;;;;;5.55;1.88;;;28.10;78.40;;;;;;5053539;28;20017;-68
2023/07/07 08:47:01;;;;;;;5.85;1.33;;;29.30;72.50;;;;;;5054415;28;20037;-69
2023/07/07 08:49:43;;;;;;;16.27;7.72;;;30.20;68.30;;;;;;5054076;28;20040;-67
2023/07/07 08:52:20;;;;;;;9.73;5.80;;;30.70;63.50;;;;;;5053702;28;20029;-68
2023/07/07 08:55:16;;;;;;;5.55;2.10;;;31.20;62.90;;;;;;5053699;28;20036;-68
2023/07/07 08:57:59;;;;;;;6.43;3.45;;;32.00;61.70;;;;;;5053391;28;20033;-68
2023/07/07 09:00:39;;;;;;;4.68;2.40;;;32.20;59.60;;;;;;5053730;28;20116;-66
2023/07/07 09:03:32;;;;;;;14.07;3.45;;;32.60;57.60;;;;;;5052236;28;20067;-68
2023/07/07 09:06:01;;;;;;;2.80;1.67;;;32.90;55.90;;;;;;5053243;28;20064;-68
2023/07/07 09:08:38;;;;;;;3.78;1.38;;;33.50;54.60;;;;;;5052851;28;20037;-67
2023/07/07 09:11:33;;;;;;;2.25;1.23;;;33.90;51.50;;;;;;5085093;28;20527;-69
2023/07/07 09:13:59;;;;;;;2.42;1.30;;;33.90;51.40;;;;;;5052282;28;20029;-68
2023/07/07 09:16:29;;;;;;;2.55;1.45;;;33.60;49.10;;;;;;5052089;28;20032;-68
2023/07/07 09:19:06;;;;;;;2.20;1.23;;;33.70;47.10;;;;;;5052055;28;20582;-66
2023/07/07 09:21:49;;;;;;;1.87;1.30;;;33.00;46.10;;;;;;5052111;28;20521;-68
2023/07/07 09:24:30;;;;;;;3.00;1.30;;;33.00;48.20;;;;;;5052082;28;20041;-68
2023/07/07 09:27:02;;;;;;;2.67;1.40;;;33.00;48.50;;;;;;5052008;28;20037;-68
2023/07/07 09:29:30;;;;;;;2.22;1.00;;;32.50;48.00;;;;;;5084457;28;20119;-71
2023/07/07 09:31:58;;;;;;;2.67;1.58;;;32.40;48.80;;;;;;5051548;28;20017;-78
2023/07/07 09:34:24;;;;;;;2.35;1.30;;;32.00;48.20;;;;;;5052035;28;20065;-69
2023/07/07 09:37:09;;;;;;;1.55;1.15;;;31.80;47.30;;;;;;5050886;28;20071;-67
2023/07/07 09:40:03;;;;;;;2.92;1.27;;;31.10;47.40;;;;;;5051741;28;20124;-68
2023/07/07 09:42:50;;;;;;;2.95;1.58;;;30.90;48.40;;;;;;5051749;28;20037;-67
2023/07/07 09:45:28;;;;;;;2.28;1.10;;;30.90;48.70;;;;;;5051655;28;20037;-70
2023/07/07 09:48:23;;;;;;;4.18;1.40;;;30.50;48.70;;;;;;5051598;28;20234;-69
2023/07/07 09:51:03;;;;;;;2.97;1.27;;;29.90;49.30;;;;;;5051369;28;20240;-69
2023/07/07 09:53:36;;;;;;;2.05;1.08;;;30.00;51.10;;;;;;5051330;28;20017;-70
2023/07/07 09:56:03;;;;;;;4.30;1.35;;;29.90;50.80;;;;;;5051698;28;20025;-72
2023/07/07 09:58:37;;;;;;;2.60;1.10;;;29.70;50.90;;;;;;5051067;28;20033;-72
2023/07/07 10:01:04;;;;;;;1.75;1.33;;;29.40;50.40;;;;;;5051258;28;20032;-69
2023/07/07 10:03:37;;;;;;;2.72;1.30;;;29.30;50.20;;;;;;5051242;28;20044;-71
2023/07/07 10:06:07;;;;;;;1.88;1.25;;;29.20;50.80;;;;;;5051220;28;20056;-70
2023/07/07 10:08:32;;;;;;;1.83;1.23;;;29.20;51.40;;;;;;5051215;28;20040;-72
2023/07/07 10:11:20;;;;;;;3.47;1.17;;;29.20;51.30;;;;;;5050271;28;20332;-72
2023/07/07 10:13:48;;;;;;;4.65;2.08;;;29.10;51.40;;;;;;5014190;28;20065;-70
2023/07/07 10:16:24;;;;;;;6.43;1.33;;;29.00;51.70;;;;;;5028811;28;20045;-69
2023/07/07 10:18:50;;;;;;;4.38;1.30;;;29.00;51.70;;;;;;5032026;28;20056;-73
2023/07/07 10:21:18;;;;;;;7.57;1.48;;;28.80;51.60;;;;;;5032181;28;20480;-71
2023/07/07 10:23:45;;;;;;;3.45;1.17;;;28.80;52.60;;;;;;5031827;28;20040;-71
2023/07/07 10:26:11;;;;;;;4.20;1.73;;;28.90;52.40;;;;;;5064391;28;20026;-72
2023/07/07 10:28:36;;;;;;;4.43;1.30;;;28.90;52.70;;;;;;5047062;28;20112;-72
2023/07/07 10:31:02;;;;;;;6.05;1.75;;;29.00;53.50;;;;;;5031797;28;20044;-71
2023/07/07 10:33:28;;;;;;;2.88;1.23;;;29.00;52.40;;;;;;5031462;28;20060;-70
2023/07/07 10:35:54;;;;;;;5.13;1.52;;;29.00;52.10;;;;;;5031733;28;20034;-73
2023/07/07 10:38:23;;;;;;;3.55;2.15;;;29.00;53.00;;;;;;5030741;28;20026;-70
2023/07/07 10:40:48;;;;;;;4.13;1.98;;;28.90;53.30;;;;;;5032052;28;20029;-71
2023/07/07 10:43:16;;;;;;;2.63;1.25;;;28.80;53.40;;;;;;5031145;28;20026;-72
2023/07/07 10:45:45;;;;;;;3.35;1.65;;;28.80;52.20;;;;;;5030545;28;20460;-70
2023/07/07 10:48:13;;;;;;;3.33;1.30;;;28.60;52.30;;;;;;5031551;28;20068;-72
2023/07/07 10:50:54;;;;;;;2.28;1.30;;;28.50;52.40;;;;;;5031489;28;20030;-73
2023/07/07 10:53:54;;;;;;;4.30;1.27;;;28.50;52.80;;;;;;5031496;28;20028;-71
2023/07/07 10:56:30;;;;;;;9.70;2.78;;;28.60;53.20;;;;;;5030887;28;20041;-70
2023/07/07 10:59:28;;;;;;;2.95;0.95;;;28.80;51.90;;;;;;5031642;28;20105;-71
2023/07/07 11:02:31;;;;;;;4.18;1.27;;;28.70;52.60;;;;;;5031422;28;20038;-71
2023/07/07 11:05:20;;;;;;;3.30;1.50;;;28.60;52.80;;;;;;5031488;28;20041;-73
2023/07/07 11:08:15;;;;;;;4.28;1.42;;;28.40;53.40;;;;;;5026913;28;20092;-72
2023/07/07 11:10:50;;;;;;;3.20;1.52;;;28.30;53.60;;;;;;5011624;28;20113;-73
2023/07/07 11:13:36;;;;;;;2.53;1.30;;;28.40;53.90;;;;;;5028366;28;20455;-72
2023/07/07 11:16:40;;;;;;;2.78;1.67;;;28.30;53.80;;;;;;5031238;28;20479;-73
2023/07/07 11:19:19;;;;;;;3.92;1.45;;;28.40;53.80;;;;;;5029746;28;20113;-72
2023/07/07 11:22:03;;;;;;;2.30;1.38;;;28.40;53.60;;;;;;5031098;28;20422;-71
2023/07/07 11:24:35;;;;;;;7.60;1.77;;;28.30;53.90;;;;;;5030656;28;20037;-72
2023/07/07 11:27:18;;;;;;;1.45;1.10;;;28.20;53.80;;;;;;5030699;28;20452;-70
2023/07/07 11:30:12;;;;;;;3.78;1.50;;;28.30;54.00;;;;;;5046457;28;20057;-70
2023/07/07 11:32:48;;;;;;;5.75;1.40;;;28.20;53.90;;;;;;5031032;28;20030;-70
2023/07/07 11:35:26;;;;;;;1.48;1.38;;;28.30;54.30;;;;;;5046359;28;20033;-71
2023/07/07 11:38:06;;;;;;;;;;;28.50;54.00;;;;;;5047212;28;20186;-70
2023/07/07 11:41:03;;;;;;;2.47;0.90;;;28.60;53.70;;;;;;5030879;28;19909;-70
2023/07/07 11:43:53;;;;;;;1.83;1.23;;;28.50;53.70;;;;;;5046170;28;20030;-70
2023/07/07 11:46:30;;;;;;;4.18;1.60;;;28.40;54.10;;;;;;5031023;28;20462;-69
2023/07/07 11:49:04;;;;;;;;;;;28.30;53.60;;;;;;5030158;28;20464;-70
2023/07/07 11:51:51;;;;;;;4.18;1.70;;;28.10;53.80;;;;;;5030877;28;19939;-70
2023/07/07 11:54:25;;;;;;;2.20;1.48;;;28.20;54.20;;;;;;5032442;28;20025;-71
2023/07/07 11:57:02;;;;;;;4.82;1.77;;;28.40;53.70;;;;;;5034385;28;20087;-70
2023/07/07 12:00:10;;;;;;;3.63;2.00;;;28.30;54.00;;;;;;5050276;28;20021;-72
2023/07/07 12:02:46;;;;;;;5.65;1.50;;;28.30;54.10;;;;;;5050057;28;20037;-70
2023/07/07 12:05:28;;;;;;;2.67;1.45;;;28.30;54.30;;;;;;5035197;28;20040;-72
2023/07/07 12:08:05;;;;;;;2.22;1.42;;;28.30;54.20;;;;;;5033445;28;20470;-69
2023/07/07 12:10:40;;;;;;;2.33;1.42;;;28.20;54.20;;;;;;5034089;28;20060;-71
2023/07/07 12:13:38;;;;;;;2.30;1.20;;;28.20;53.80;;;;;;5034173;28;20095;-73
2023/07/07 12:16:20;;;;;;;1.35;1.20;;;28.20;53.60;;;;;;5030010;28;20167;-71
2023/07/07 12:18:57;;;;;;;3.75;1.38;;;28.00;53.30;;;;;;5049802;28;20491;-72
2023/07/07 12:21:35;;;;;;;4.05;1.60;;;27.90;53.20;;;;;;5034214;28;20082;-72
2023/07/07 12:24:33;;;;;;;3.60;1.23;;;28.10;53.70;;;;;;5033996;28;20029;-72
2023/07/07 12:27:08;;;;;;;;;;;28.20;53.60;;;;;;5034271;28;20046;-71
2023/07/07 12:29:38;;;;;;;2.45;1.55;;;28.20;53.60;;;;;;5034189;28;19920;-71
2023/07/07 12:32:04;;;;;;;4.60;1.48;;;28.30;53.60;;;;;;5034392;28;20025;-71
2023/07/07 12:34:46;;;;;;;3.78;1.48;;;28.40;53.10;;;;;;5033897;28;20053;-71
2023/07/07 12:37:16;;;;;;;1.60;1.35;;;28.40;52.80;;;;;;5049387;28;20388;-71
2023/07/07 12:39:57;;;;;;;4.45;1.40;;;28.20;52.20;;;;;;5033449;28;20033;-71
2023/07/07 12:42:26;;;;;;;2.85;1.40;;;28.10;52.60;;;;;;5033424;28;20030;-71
2023/07/07 12:44:52;;;;;;;2.65;1.50;;;28.10;52.40;;;;;;5033828;28;20341;-70
2023/07/07 12:47:31;;;;;;;3.95;1.70;;;28.20;52.70;;;;;;5032347;28;20028;-68
2023/07/07 12:50:00;;;;;;;4.32;1.73;;;28.20;52.90;;;;;;5034053;28;20037;-69
2023/07/07 12:52:42;;;;;;;1.98;1.30;;;28.20;52.90;;;;;;5033728;28;20036;-68
2023/07/07 12:55:24;;;;;;;3.13;2.00;;;28.20;53.10;;;;;;5033614;28;20041;-70
2023/07/07 12:57:57;;;;;;;3.25;1.42;;;28.40;53.10;;;;;;5049304;28;20036;-70
2023/07/07 13:00:43;;;;;;;5.07;1.27;;;28.50;52.70;;;;;;5033540;28;20033;-70
2023/07/07 13:03:09;;;;;;;9.70;5.18;;;28.50;52.40;;;;;;5032367;28;20345;-68
2023/07/07 13:05:41;;;;;;;5.00;3.13;;;28.40;52.90;;;;;;5048593;28;20443;-69
2023/07/07 13:08:07;;;;;;;3.15;1.60;;;28.30;52.60;;;;;;5033641;28;20025;-69